Time;durP1;ratioP1;P1;durP2;ratioP2;P2;SDS_P1;SDS_P2;PMS_P1;PMS_P2;Temp;Humidity;BMP_temperature;BMP_pressure;BME280_temperature;BME280_humidity;BME280_pressure;Samples;Min_cycle;Max_cycle;Signal;HPM_P1;HPM_P2
2022/01/23 00:01:07;;;;;;;11.68;4.05;;;;;;;5.14;99.19;102548.91;5074868;28;20088;-53
2022/01/23 00:03:44;;;;;;;11.70;4.68;;;;;;;5.09;99.39;102547.22;5074696;28;20132;-53
2022/01/23 00:06:12;;;;;;;10.00;4.13;;;;;;;5.04;99.63;102552.50;5074804;28;20415;-53
2022/01/23 00:08:45;;;;;;;14.27;4.18;;;;;;;5.08;99.90;102548.97;5074151;28;20056;-53
2022/01/23 00:11:14;;;;;;;12.20;4.22;;;;;;;5.12;100.00;102539.31;5074355;28;20048;-53
2022/01/23 00:19:15;;;;;;;11.80;4.28;;;;;;;5.12;100.00;102542.78;5074930;28;20052;-53
2022/01/23 00:21:45;;;;;;;12.10;3.70;;;;;;;5.14;99.94;102540.16;5074346;28;20052;-53
2022/01/23 00:32:31;;;;;;;13.07;4.28;;;;;;;5.15;99.68;102529.63;5074080;28;20063;-53
2022/01/23 00:35:00;;;;;;;8.48;3.53;;;;;;;5.16;99.09;102520.84;5073913;28;20059;-53
2022/01/23 00:37:28;;;;;;;13.82;3.55;;;;;;;5.09;100.00;102526.16;5073904;28;20053;-53
2022/01/23 00:39:56;;;;;;;12.93;3.78;;;;;;;5.10;100.00;102526.16;5074438;28;20432;-53
2022/01/23 00:42:24;;;;;;;11.18;3.63;;;;;;;5.08;100.00;102529.66;5073819;28;20056;-53
2022/01/23 00:45:08;;;;;;;12.02;3.05;;;;;;;5.05;100.00;102525.31;5075563;28;20099;-53
2022/01/23 00:47:37;;;;;;;15.63;3.78;;;;;;;5.07;100.00;102518.28;5078552;28;20063;-53
2022/01/23 00:50:06;;;;;;;10.20;3.92;;;;;;;5.07;100.00;102520.91;5077812;28;20057;-53
2022/01/23 00:52:34;;;;;;;10.10;3.78;;;;;;;5.05;100.00;102522.69;5078155;28;20401;-53
2022/01/23 00:55:04;;;;;;;21.50;3.90;;;;;;;5.02;100.00;102522.69;5078685;28;20122;-53
2022/01/23 00:57:33;;;;;;;13.38;3.92;;;;;;;4.98;100.00;102515.72;5077478;28;20044;-54
2022/01/23 01:00:05;;;;;;;13.10;4.13;;;;;;;4.97;100.00;102514.81;5077660;28;20062;-53
2022/01/23 01:02:34;;;;;;;8.68;3.60;;;;;;;5.00;100.00;102519.22;5077356;28;20056;-53
2022/01/23 01:05:02;;;;;;;8.93;3.65;;;;;;;4.99;99.81;102520.09;5078714;28;20131;-53
2022/01/23 01:07:31;;;;;;;11.07;3.53;;;;;;;4.94;100.00;102519.25;5077796;28;20404;-53
2022/01/23 01:10:05;;;;;;;12.75;3.80;;;;;;;4.87;99.67;102515.78;5078301;28;20139;-53
2022/01/23 01:12:38;;;;;;;8.20;3.83;;;;;;;4.85;99.95;102501.78;5077183;28;20060;-53
2022/01/23 01:31:54;;;;;;;7.07;3.28;;;;;;;4.98;99.90;102505.22;5078210;28;20052;-53
2022/01/23 01:34:30;;;;;;;9.75;3.78;;;;;;;5.00;100.00;102503.44;5077867;28;20056;-53
2022/01/23 01:36:59;;;;;;;14.75;4.18;;;;;;;4.97;100.00;102499.06;5076902;28;20526;-53
2022/01/23 01:39:32;;;;;;;8.93;3.78;;;;;;;4.93;100.00;102493.84;5076781;28;20056;-53
2022/01/23 01:42:00;;;;;;;7.38;4.00;;;;;;;4.95;100.00;102492.06;5077155;28;20053;-53
2022/01/23 01:44:29;;;;;;;10.02;3.97;;;;;;;5.00;100.00;102482.38;5076575;28;20053;-53
2022/01/23 01:46:59;;;;;;;12.73;4.43;;;;;;;5.01;100.00;102494.66;5076780;28;20057;-53
2022/01/23 01:49:30;;;;;;;11.75;4.57;;;;;;;4.97;100.00;102485.91;5077100;28;20150;-53
2022/01/23 01:51:59;;;;;;;11.32;4.53;;;;;;;4.87;100.00;102475.47;5076419;28;20063;-53
2022/01/23 01:54:30;;;;;;;11.55;4.45;;;;;;;4.92;100.00;102484.19;5076375;28;20061;-53
2022/01/23 01:57:07;;;;;;;11.30;5.47;;;;;;;4.96;100.00;102481.53;5075130;28;20546;-53
2022/01/23 01:59:59;;;;;;;14.07;5.10;;;;;;;5.00;100.00;102480.63;5076420;28;20068;-53
2022/01/23 02:03:07;;;;;;;;;;;;;;;4.96;100.00;102480.66;5077275;28;20053;-53
2022/01/23 02:08:26;;;;;;;12.60;6.10;;;;;;;4.89;100.00;102485.06;5076506;28;20052;-53
2022/01/23 02:10:59;;;;;;;;;;;;;;;4.82;100.00;102486.00;5078015;28;20060;-53
2022/01/23 02:13:32;;;;;;;16.20;6.28;;;;;;;4.79;100.00;102475.50;5077430;28;19950;-53
2022/01/23 02:16:34;;;;;;;9.82;5.97;;;;;;;4.73;100.00;102479.06;5075942;28;20060;-53
2022/01/23 02:52:48;;;;;;;13.50;7.53;;;;;;;4.64;100.00;102448.44;5076278;28;20064;-53
2022/01/23 02:55:24;;;;;;;15.10;6.85;;;;;;;4.62;100.00;102439.72;5075170;28;20056;-53
2022/01/23 02:57:55;;;;;;;17.35;7.72;;;;;;;4.60;100.00;102445.84;5076385;28;20060;-53
2022/01/23 03:00:30;;;;;;;13.95;6.97;;;;;;;4.60;100.00;102435.31;5075505;28;20085;-53
2022/01/23 03:03:09;;;;;;;15.15;7.38;;;;;;;4.60;100.00;102436.19;5075369;28;20059;-53
2022/01/23 03:05:40;;;;;;;17.17;7.55;;;;;;;4.53;100.00;102433.63;5075036;28;20060;-53
2022/01/23 03:08:22;;;;;;;12.90;7.68;;;;;;;4.39;100.00;102416.19;5074953;28;20071;-53
2022/01/23 03:11:02;;;;;;;16.52;8.10;;;;;;;4.43;100.00;102433.66;5074950;28;20405;-53
2022/01/23 03:13:47;;;;;;;20.90;9.18;;;;;;;4.38;100.00;102430.19;5076369;28;20056;-53
2022/01/23 03:24:40;;;;;;;23.63;10.23;;;;;;;4.38;100.00;102424.94;5075548;28;20053;-53
2022/01/23 03:27:38;;;;;;;21.73;9.30;;;;;;;4.30;100.00;102421.47;5074921;28;20500;-53
2022/01/23 03:30:17;;;;;;;19.63;8.88;;;;;;;4.30;100.00;102418.84;5074568;28;20508;-53
2022/01/23 03:32:48;;;;;;;20.73;10.95;;;;;;;4.31;100.00;102417.13;5074830;28;20110;-53
2022/01/23 03:35:17;;;;;;;21.75;9.65;;;;;;;4.37;100.00;102423.22;5074413;28;20056;-53
2022/01/23 03:37:45;;;;;;;21.42;10.50;;;;;;;4.37;100.00;102412.69;5075490;28;20072;-53
2022/01/23 03:40:14;;;;;;;24.58;9.60;;;;;;;4.35;100.00;102414.44;5074696;28;20063;-53
2022/01/23 03:42:45;;;;;;;20.38;9.30;;;;;;;4.38;100.00;102414.44;5074555;28;20060;-53
2022/01/23 03:45:49;;;;;;;24.23;10.23;;;;;;;4.42;100.00;102405.66;5074936;28;20052;-53
2022/01/23 03:50:48;;;;;;;18.13;9.82;;;;;;;4.32;100.00;102409.22;5075172;28;19926;-53
2022/01/23 03:53:16;;;;;;;26.17;11.02;;;;;;;4.27;100.00;102411.00;5074736;28;20055;-53
2022/01/23 03:55:45;;;;;;;21.73;10.70;;;;;;;4.27;100.00;102405.75;5075571;28;20408;-53
2022/01/23 03:58:15;;;;;;;26.02;10.80;;;;;;;4.24;100.00;102401.38;5074356;28;20067;-53
2022/01/23 04:00:43;;;;;;;19.70;10.63;;;;;;;4.25;100.00;102402.25;5075473;28;20052;-53
2022/01/23 04:03:15;;;;;;;23.48;11.45;;;;;;;4.26;100.00;102407.50;5075402;28;20062;-53
2022/01/23 04:05:43;;;;;;;21.20;10.77;;;;;;;4.22;100.00;102399.63;5075060;28;20056;-53
2022/01/23 04:08:11;;;;;;;18.63;10.52;;;;;;;4.24;100.00;102405.78;5074521;28;20056;-53
2022/01/23 04:10:39;;;;;;;27.65;12.48;;;;;;;4.17;100.00;102409.28;5074459;28;20067;-53
2022/01/23 04:13:16;;;;;;;26.05;12.60;;;;;;;4.17;100.00;102409.28;5074071;28;20057;-53
2022/01/23 04:15:51;;;;;;;18.98;12.30;;;;;;;4.09;100.00;102402.31;5074155;28;20052;-53
2022/01/23 04:21:18;;;;;;;25.00;13.48;;;;;;;4.06;100.00;102397.09;5074046;28;20060;-53
2022/01/23 04:32:15;;;;;;;29.95;14.55;;;;;;;3.98;100.00;102387.50;5073719;28;20053;-54
2022/01/23 04:35:03;;;;;;;25.17;13.40;;;;;;;4.00;100.00;102386.63;5073682;28;20052;-53
2022/01/23 04:46:13;;;;;;;24.55;12.77;;;;;;;3.92;100.00;102383.16;5073614;28;20059;-53
2022/01/23 04:59:31;;;;;;;28.45;14.15;;;;;;;3.93;100.00;102384.88;5073593;28;20061;-53
2022/01/23 05:00:00;;;;;;;28.25;13.50;;;;;;;3.91;100.00;102371.75;5073956;28;20419;-53
2022/01/23 05:03:00;;;;;;;25.58;13.45;;;;;;;3.88;100.00;102376.16;5074826;28;20053;-53
2022/01/23 05:05:30;;;;;;;27.67;13.77;;;;;;;3.88;100.00;102370.91;5074243;28;20114;-53
2022/01/23 05:08:00;;;;;;;32.00;14.30;;;;;;;3.78;100.00;102370.06;5074755;28;20060;-53
2022/01/23 05:10:28;;;;;;;25.73;13.95;;;;;;;3.70;100.00;102377.13;5074770;28;20052;-53
2022/01/23 05:12:57;;;;;;;35.58;14.55;;;;;;;3.67;100.00;102380.63;5073958;28;20094;-53
2022/01/23 05:15:25;;;;;;;27.08;15.02;;;;;;;3.72;100.00;102370.13;5074715;28;20067;-53
2022/01/23 05:17:53;;;;;;;27.20;14.52;;;;;;;3.69;100.00;102370.97;5074024;28;20408;-53
2022/01/23 05:20:26;;;;;;;31.38;14.68;;;;;;;3.64;100.00;102366.66;5073510;28;20070;-53
2022/01/23 05:23:00;;;;;;;29.67;15.18;;;;;;;3.61;100.00;102370.13;5073537;28;20067;-53
2022/01/23 05:25:31;;;;;;;28.15;14.13;;;;;;;3.62;100.00;102371.91;5074412;28;20060;-53
2022/01/23 05:27:59;;;;;;;30.92;15.55;;;;;;;3.65;100.00;102365.78;5074095;28;20060;-53
2022/01/23 05:30:27;;;;;;;30.23;16.10;;;;;;;3.67;100.00;102364.88;5074218;28;20052;-53
2022/01/23 05:32:58;;;;;;;32.70;14.30;;;;;;;3.66;100.00;102370.13;5077095;28;20056;-53
2022/01/23 05:35:29;;;;;;;31.05;14.85;;;;;;;3.72;100.00;102363.09;5077134;28;20056;-53
2022/01/23 05:37:58;;;;;;;27.75;15.48;;;;;;;3.70;100.00;102362.25;5076991;28;20057;-53
2022/01/23 05:40:29;;;;;;;36.95;15.75;;;;;;;3.71;100.00;102356.09;5077228;28;20060;-53
2022/01/23 05:42:57;;;;;;;30.15;16.02;;;;;;;3.72;100.00;102357.00;5077250;28;20060;-53
2022/01/23 05:45:25;;;;;;;36.75;17.30;;;;;;;3.72;100.00;102359.63;5076978;28;20060;-53
2022/01/23 05:47:53;;;;;;;32.25;15.98;;;;;;;3.72;100.00;102352.59;5077118;28;20534;-53
2022/01/23 05:50:22;;;;;;;38.38;17.10;;;;;;;3.69;100.00;102359.63;5077092;28;20056;-53
2022/01/23 05:52:51;;;;;;;33.55;17.25;;;;;;;3.67;100.00;102351.75;5077035;28;20063;-53
2022/01/23 05:55:19;;;;;;;32.30;17.10;;;;;;;3.66;100.00;102355.25;5077568;28;20048;-53
2022/01/23 05:57:48;;;;;;;36.17;18.02;;;;;;;3.69;100.00;102352.63;5076672;28;20068;-53
2022/01/23 06:00:17;;;;;;;35.78;17.70;;;;;;;3.66;100.00;102350.00;5076330;28;20060;-53
2022/01/23 06:02:45;;;;;;;37.08;16.75;;;;;;;3.62;100.00;102352.66;5076826;28;20052;-53
2022/01/23 06:05:14;;;;;;;32.20;18.05;;;;;;;3.66;100.00;102351.75;5076253;28;20583;-53
2022/01/23 06:07:42;;;;;;;33.97;17.42;;;;;;;3.61;100.00;102351.75;5077783;28;20071;-53
2022/01/23 06:10:21;;;;;;;35.13;18.73;;;;;;;3.53;100.00;102353.53;5076386;28;20052;-53
2022/01/23 06:12:49;;;;;;;40.10;17.05;;;;;;;3.57;100.00;102355.28;5076950;28;20057;-53
2022/01/23 06:15:18;;;;;;;33.35;17.23;;;;;;;3.52;100.00;102349.19;5076012;28;20061;-53
2022/01/23 06:17:46;;;;;;;31.67;17.65;;;;;;;3.55;100.00;102357.06;5076133;28;20059;-53
2022/01/23 06:20:15;;;;;;;29.83;17.45;;;;;;;3.51;100.00;102355.31;5076675;28;20064;-53
2022/01/23 06:22:45;;;;;;;34.17;17.65;;;;;;;3.51;100.00;102360.56;5076143;28;20053;-53
2022/01/23 06:25:17;;;;;;;31.83;16.98;;;;;;;3.49;100.00;102357.06;5076173;28;20488;-53
2022/01/23 06:27:45;;;;;;;31.63;15.45;;;;;;;3.54;100.00;102355.31;5076498;28;20056;-53
2022/01/23 06:30:14;;;;;;;39.42;17.70;;;;;;;3.51;100.00;102345.69;5077099;28;20052;-53
2022/01/23 06:32:42;;;;;;;37.42;17.02;;;;;;;3.38;100.00;102353.59;5076263;28;20542;-53
2022/01/23 06:35:10;;;;;;;34.78;16.45;;;;;;;3.34;100.00;102357.97;5076361;28;20063;-53
2022/01/23 06:37:38;;;;;;;38.22;18.38;;;;;;;3.26;100.00;102359.75;5076147;28;20060;-53
2022/01/23 06:40:08;;;;;;;37.08;19.02;;;;;;;3.24;100.00;102361.50;5075700;28;20060;-53
2022/01/23 06:42:37;;;;;;;32.25;17.48;;;;;;;3.19;100.00;102369.38;5075113;28;20060;-53
2022/01/23 06:45:07;;;;;;;37.13;17.45;;;;;;;3.19;100.00;102368.50;5076602;28;20079;-53
2022/01/23 06:47:35;;;;;;;32.88;17.75;;;;;;;3.20;100.00;102365.03;5076244;28;20182;-53
2022/01/23 06:50:04;;;;;;;31.92;16.88;;;;;;;3.28;100.00;102372.00;5076052;28;20060;-53
2022/01/23 06:52:32;;;;;;;33.63;16.58;;;;;;;3.23;100.00;102371.13;5075552;28;20056;-53
2022/01/23 06:55:00;;;;;;;41.88;19.77;;;;;;;3.17;100.00;102382.47;5076410;28;20480;-53
2022/01/23 06:57:28;;;;;;;43.50;17.67;;;;;;;3.19;100.00;102374.63;5076062;28;20061;-53
2022/01/23 06:59:58;;;;;;;39.70;16.80;;;;;;;3.18;100.00;102367.66;5076355;28;20396;-53
2022/01/23 07:02:26;;;;;;;30.58;15.90;;;;;;;3.12;100.00;102367.66;5075424;28;20415;-53
2022/01/23 07:04:55;;;;;;;32.08;15.63;;;;;;;3.14;100.00;102371.13;5076007;28;20056;-53
2022/01/23 07:07:23;;;;;;;36.22;16.23;;;;;;;3.11;100.00;102368.50;5075309;28;20056;-53
2022/01/23 07:09:51;;;;;;;35.45;16.10;;;;;;;3.05;100.00;102365.91;5075888;28;20068;-53
2022/01/23 07:12:19;;;;;;;33.35;16.90;;;;;;;3.04;100.00;102364.16;5075084;28;20056;-53
2022/01/23 07:14:48;;;;;;;36.45;16.48;;;;;;;3.07;100.00;102364.16;5076173;28;20052;-53
2022/01/23 07:17:17;;;;;;;33.30;17.05;;;;;;;3.11;100.00;102361.53;5075369;28;20106;-53
2022/01/23 07:19:46;;;;;;;30.17;15.63;;;;;;;3.09;100.00;102372.88;5075487;28;20057;-53
2022/01/23 07:22:14;;;;;;;40.10;16.73;;;;;;;3.10;100.00;102369.41;5074963;28;20063;-53
2022/01/23 07:24:42;;;;;;;25.98;14.57;;;;;;;3.13;100.00;102367.66;5075311;28;20057;-53
2022/01/23 07:27:16;;;;;;;28.65;15.57;;;;;;;3.12;100.00;102372.88;5075384;28;20052;-53
2022/01/23 07:29:45;;;;;;;33.65;16.42;;;;;;;3.13;100.00;102369.41;5075705;28;20060;-53
2022/01/23 07:32:14;;;;;;;26.02;14.52;;;;;;;3.09;100.00;102373.78;5075927;28;20060;-53
2022/01/23 07:34:43;;;;;;;31.67;14.75;;;;;;;2.98;100.00;102373.78;5075381;28;20075;-53
2022/01/23 07:37:13;;;;;;;34.20;14.50;;;;;;;2.94;100.00;102374.66;5075368;28;20071;-53
2022/01/23 07:39:41;;;;;;;30.17;15.35;;;;;;;2.91;100.00;102379.91;5074547;28;20057;-53
2022/01/23 07:42:10;;;;;;;28.88;14.63;;;;;;;2.93;100.00;102380.78;5074550;28;20052;-53
2022/01/23 07:44:38;;;;;;;33.47;15.48;;;;;;;2.96;100.00;102382.53;5075183;28;20057;-53
2022/01/23 07:47:07;;;;;;;31.38;15.77;;;;;;;2.95;100.00;102375.53;5075135;28;20053;-53
2022/01/23 07:49:36;;;;;;;32.88;15.60;;;;;;;3.06;100.00;102383.38;5074774;28;20060;-53
2022/01/23 07:52:06;;;;;;;32.92;17.60;;;;;;;2.97;100.00;102389.50;5074475;28;20436;-53
2022/01/23 07:54:34;;;;;;;32.17;17.38;;;;;;;2.95;100.00;102386.88;5074681;28;20076;-53
2022/01/23 07:57:03;;;;;;;30.90;16.67;;;;;;;2.91;100.00;102385.16;5074378;28;20059;-53
2022/01/23 07:59:31;;;;;;;36.00;17.50;;;;;;;2.91;100.00;102389.53;5074398;28;20060;-53
2022/01/23 08:02:00;;;;;;;37.25;18.42;;;;;;;2.86;100.00;102392.13;5074297;28;20412;-53
2022/01/23 08:04:28;;;;;;;31.75;15.88;;;;;;;2.87;100.00;102393.88;5074409;28;20052;-53
2022/01/23 08:07:09;;;;;;;32.03;16.20;;;;;;;2.92;100.00;102386.88;5074644;28;20056;-53
2022/01/23 08:09:39;;;;;;;29.70;15.45;;;;;;;2.93;100.00;102388.63;5074875;28;20060;-53
2022/01/23 08:12:11;;;;;;;34.17;17.33;;;;;;;2.89;100.00;102386.91;5073945;28;20523;-53
2022/01/23 08:14:39;;;;;;;34.33;16.17;;;;;;;2.90;100.00;102388.63;5073908;28;20060;-53
2022/01/23 08:17:07;;;;;;;33.15;16.17;;;;;;;2.95;100.00;102392.13;5074144;28;20063;-53
2022/01/23 08:19:35;;;;;;;31.27;15.45;;;;;;;3.02;100.00;102397.38;5074148;28;20500;-53
2022/01/23 08:22:04;;;;;;;29.73;15.88;;;;;;;3.00;100.00;102396.50;5074133;28;20063;-53
2022/01/23 08:24:32;;;;;;;30.67;15.73;;;;;;;2.96;100.00;102393.88;5074757;28;20053;-53
2022/01/23 08:27:02;;;;;;;30.52;15.00;;;;;;;2.96;100.00;102388.63;5074099;28;20053;-53
2022/01/23 08:29:30;;;;;;;32.85;16.40;;;;;;;2.98;100.00;102391.25;5074035;28;20061;-53
2022/01/23 08:31:58;;;;;;;30.40;15.80;;;;;;;2.87;100.00;102386.00;5074056;28;20053;-53
2022/01/23 08:34:26;;;;;;;35.17;16.58;;;;;;;2.91;100.00;102385.16;5074510;28;20090;-53
2022/01/23 08:36:55;;;;;;;28.70;16.15;;;;;;;2.91;100.00;102390.38;5074268;28;20059;-53
2022/01/23 08:39:25;;;;;;;30.88;15.30;;;;;;;3.04;100.00;102395.63;5074165;28;20057;-53
2022/01/23 08:41:54;;;;;;;27.05;14.85;;;;;;;3.05;100.00;102397.38;5073697;28;20064;-53
2022/01/23 08:44:24;;;;;;;30.95;15.93;;;;;;;2.97;100.00;102394.75;5073671;28;20503;-53
2022/01/23 08:46:53;;;;;;;28.83;15.05;;;;;;;2.98;100.00;102391.25;5073656;28;20476;-53
2022/01/23 08:49:24;;;;;;;29.30;15.70;;;;;;;2.96;100.00;102396.50;5074137;28;20056;-53
2022/01/23 08:51:53;;;;;;;29.83;13.63;;;;;;;3.04;100.00;102399.09;5074968;28;20475;-53
2022/01/23 08:54:21;;;;;;;37.33;14.25;;;;;;;3.02;100.00;102392.13;5073794;28;20065;-53
2022/01/23 08:56:49;;;;;;;25.50;13.20;;;;;;;3.08;100.00;102402.63;5074031;28;20393;-53
2022/01/23 08:59:17;;;;;;;25.08;14.00;;;;;;;3.08;100.00;102398.25;5074118;28;20059;-53
2022/01/23 09:01:47;;;;;;;29.85;14.80;;;;;;;2.98;100.00;102392.13;5073717;28;20056;-53
2022/01/23 09:04:16;;;;;;;29.00;13.77;;;;;;;2.90;100.00;102377.28;5075115;28;20135;-53
2022/01/23 09:06:44;;;;;;;33.53;15.52;;;;;;;2.97;100.00;102379.00;5077114;28;20070;-53
2022/01/23 09:09:16;;;;;;;26.92;14.07;;;;;;;3.02;100.00;102386.88;5077758;28;20048;-53
2022/01/23 09:11:56;;;;;;;25.02;14.00;;;;;;;3.05;100.00;102381.66;5077339;28;20074;-53
2022/01/23 09:14:25;;;;;;;31.02;14.93;;;;;;;3.03;100.00;102393.88;5077132;28;20067;-53
2022/01/23 09:16:55;;;;;;;28.48;14.35;;;;;;;3.16;100.00;102382.47;5077371;28;20053;-53
2022/01/23 09:19:25;;;;;;;28.23;14.32;;;;;;;3.21;100.00;102375.50;5077512;28;20068;-53
2022/01/23 09:21:54;;;;;;;24.92;15.77;;;;;;;3.10;100.00;102374.66;5077648;28;20056;-53
2022/01/23 09:24:25;;;;;;;28.75;16.08;;;;;;;3.08;100.00;102372.03;5077639;28;20067;-53
2022/01/23 09:27:01;;;;;;;30.38;16.17;;;;;;;3.01;100.00;102379.88;5078134;28;20431;-53
2022/01/23 09:29:34;;;;;;;27.98;17.08;;;;;;;3.05;100.00;102379.03;5077162;28;20064;-53
2022/01/23 09:32:07;;;;;;;27.38;15.30;;;;;;;3.16;100.00;102370.28;5077805;28;20056;-53
2022/01/23 09:34:36;;;;;;;30.08;16.80;;;;;;;3.16;100.00;102374.63;5077600;28;20059;-53
2022/01/23 09:37:07;;;;;;;28.20;14.90;;;;;;;3.16;100.00;102364.13;5077037;28;20060;-53
2022/01/23 09:39:36;;;;;;;27.20;15.65;;;;;;;3.18;100.00;102367.66;5077505;28;20407;-53
2022/01/23 09:42:09;;;;;;;36.85;16.02;;;;;;;3.16;100.00;102359.78;5077068;28;20057;-53
2022/01/23 09:44:42;;;;;;;26.20;15.05;;;;;;;3.20;100.00;102367.66;5077513;28;20056;-53
2022/01/23 09:47:14;;;;;;;24.95;14.95;;;;;;;3.26;100.00;102365.88;5077966;28;20412;-53
2022/01/23 09:49:44;;;;;;;33.05;14.15;;;;;;;3.04;100.00;102369.41;5077229;28;20063;-53
2022/01/23 09:52:12;;;;;;;25.40;14.00;;;;;;;2.99;100.00;102372.00;5077168;28;20135;-53
2022/01/23 09:54:44;;;;;;;26.25;14.35;;;;;;;3.11;100.00;102360.63;5076696;28;20496;-53
2022/01/23 09:57:13;;;;;;;30.57;13.90;;;;;;;3.34;100.00;102364.09;5076415;28;20056;-53
2022/01/23 09:59:41;;;;;;;29.65;14.65;;;;;;;3.50;100.00;102364.06;5077244;28;20295;-53
2022/01/23 10:02:09;;;;;;;24.15;14.40;;;;;;;3.58;100.00;102357.06;5077117;28;20056;-53
2022/01/23 10:04:39;;;;;;;27.42;13.45;;;;;;;3.51;100.00;102365.81;5076359;28;20059;-53
2022/01/23 10:07:08;;;;;;;26.33;13.40;;;;;;;3.56;100.00;102357.91;5076772;28;20143;-53
2022/01/23 10:09:37;;;;;;;29.40;14.00;;;;;;;3.65;100.00;102353.53;5076992;28;20052;-53
2022/01/23 10:12:07;;;;;;;24.77;14.07;;;;;;;3.62;99.67;102353.53;5076565;28;20060;-53
2022/01/23 10:14:36;;;;;;;25.63;14.20;;;;;;;3.31;100.00;102356.25;5077260;28;20052;-53
2022/01/23 10:17:06;;;;;;;24.10;14.07;;;;;;;3.21;100.00;102351.91;5075381;28;20052;-53
2022/01/23 10:19:35;;;;;;;33.63;15.25;;;;;;;3.41;100.00;102354.44;5075821;28;20056;-53
2022/01/23 10:22:05;;;;;;;30.60;14.13;;;;;;;3.52;100.00;102350.06;5075975;28;20423;-53
2022/01/23 10:24:34;;;;;;;27.25;13.88;;;;;;;3.72;99.50;102344.72;5076916;28;20479;-53
2022/01/23 10:27:03;;;;;;;22.88;12.57;;;;;;;3.57;98.88;102347.41;5076284;28;20052;-53
2022/01/23 10:29:35;;;;;;;28.33;14.23;;;;;;;3.68;98.83;102348.25;5075967;28;20512;-53
2022/01/23 10:32:10;;;;;;;27.20;13.52;;;;;;;3.83;97.29;102347.31;5075738;28;20534;-53
2022/01/23 10:34:51;;;;;;;25.30;13.18;;;;;;;3.65;97.73;102352.66;5076512;28;20049;-53
2022/01/23 10:37:30;;;;;;;22.30;13.10;;;;;;;3.58;98.16;102340.41;5075833;28;20056;-53
2022/01/23 10:40:05;;;;;;;27.10;13.13;;;;;;;3.52;98.39;102343.94;5075574;28;20060;-53
2022/01/23 10:48:35;;;;;;;29.02;15.75;;;;;;;3.50;98.61;102337.84;5075556;28;20060;-53
2022/01/23 10:51:23;;;;;;;27.33;13.27;;;;;;;3.60;98.16;102333.41;5075032;28;20566;-53
2022/01/23 10:54:11;;;;;;;23.02;11.93;;;;;;;3.81;97.30;102324.56;5076581;28;20056;-53
2022/01/23 10:56:55;;;;;;;21.67;13.68;;;;;;;3.67;97.44;102325.50;5076096;28;20411;-53
2022/01/23 10:59:24;;;;;;;21.52;13.65;;;;;;;3.58;98.41;102308.91;5075980;28;20060;-53
2022/01/23 11:02:04;;;;;;;23.58;12.90;;;;;;;3.78;97.72;102306.19;5075168;28;20060;-53
2022/01/23 11:04:35;;;;;;;22.13;12.32;;;;;;;3.94;97.33;102318.38;5075130;28;20512;-53
2022/01/23 11:07:05;;;;;;;18.50;12.00;;;;;;;3.91;96.07;102302.63;5076317;28;20049;-53
2022/01/23 11:09:37;;;;;;;22.88;12.35;;;;;;;3.61;97.43;102301.91;5075754;28;20056;-53
2022/01/23 11:12:14;;;;;;;23.92;13.30;;;;;;;3.87;97.75;102311.44;5074902;28;20056;-53
2022/01/23 11:17:28;;;;;;;22.08;11.07;;;;;;;4.40;94.61;102297.03;5075955;28;20048;-53
2022/01/23 11:19:59;;;;;;;25.83;12.93;;;;;;;4.59;92.49;102302.13;5074917;28;20056;-53
2022/01/23 11:22:29;;;;;;;25.50;12.88;;;;;;;4.42;92.22;102300.53;5075994;28;20388;-53
2022/01/23 11:25:01;;;;;;;23.45;12.73;;;;;;;4.34;91.20;102297.09;5076060;28;20064;-53
2022/01/23 11:27:35;;;;;;;23.67;13.57;;;;;;;4.41;91.96;102301.41;5074891;28;20493;-53
2022/01/23 11:30:08;;;;;;;21.00;12.45;;;;;;;4.46;92.27;102302.25;5074268;28;20542;-53
2022/01/23 11:32:39;;;;;;;23.27;13.75;;;;;;;4.24;92.61;102287.56;5074488;28;20506;-53
2022/01/23 11:35:12;;;;;;;21.98;11.95;;;;;;;4.33;92.27;102279.59;5075320;28;20063;-53
2022/01/23 11:37:46;;;;;;;21.48;12.40;;;;;;;4.53;91.77;102273.31;5075074;28;20053;-53
2022/01/23 11:40:34;;;;;;;24.10;13.23;;;;;;;4.35;91.60;102262.03;5074618;28;20056;-53
2022/01/23 11:54:15;;;;;;;19.98;12.35;;;;;;;4.84;89.44;102266.88;5074093;28;20057;-53
2022/01/23 11:56:47;;;;;;;23.98;12.00;;;;;;;5.04;90.22;102257.88;5074300;28;20059;-53
2022/01/23 11:59:26;;;;;;;21.02;12.15;;;;;;;4.84;88.70;102251.09;5074051;28;20539;-53
2022/01/23 12:02:36;;;;;;;23.52;13.13;;;;;;;4.58;91.27;102248.72;5075272;28;20070;-53
2022/01/23 12:05:30;;;;;;;21.17;13.13;;;;;;;4.38;91.64;102248.88;5073984;28;20056;-53
2022/01/23 12:08:36;;;;;;;17.92;11.43;;;;;;;4.42;91.77;102237.47;5074702;28;20127;-53
2022/01/23 12:11:43;;;;;;;26.45;13.50;;;;;;;4.39;91.87;102237.50;5073909;28;20060;-53
2022/01/23 12:17:42;;;;;;;22.77;12.32;;;;;;;4.76;90.45;102242.41;5070168;28;20518;-53
2022/01/23 12:20:10;;;;;;;25.63;14.85;;;;;;;4.19;90.78;102231.56;5074140;28;20064;-53
2022/01/23 12:22:42;;;;;;;23.77;14.05;;;;;;;4.16;92.98;102228.94;5074492;28;20060;-53
2022/01/23 12:25:33;;;;;;;23.15;13.48;;;;;;;4.72;90.75;102219.66;5073822;28;20495;-53
2022/01/23 12:28:13;;;;;;;23.25;14.05;;;;;;;4.58;89.23;102211.06;5071376;28;20502;-53
2022/01/23 12:30:45;;;;;;;23.73;12.63;;;;;;;4.83;89.43;102220.41;5074144;28;20500;-53
2022/01/23 12:33:17;;;;;;;22.42;12.93;;;;;;;4.91;88.79;102198.41;5073744;28;20056;-53
2022/01/23 12:35:47;;;;;;;21.58;13.15;;;;;;;4.75;88.77;102224.03;5074810;28;20063;-53
2022/01/23 12:38:16;;;;;;;22.10;13.23;;;;;;;4.75;89.05;102197.72;5074534;28;20109;-53
2022/01/23 12:40:46;;;;;;;24.73;14.57;;;;;;;4.99;88.21;102207.09;5074776;28;20056;-53
2022/01/23 12:43:17;;;;;;;24.30;13.50;;;;;;;4.69;88.90;102213.56;5077800;28;20102;-53
2022/01/23 12:45:56;;;;;;;22.30;13.70;;;;;;;4.66;89.84;102196.06;5077723;28;20056;-53
2022/01/23 12:48:48;;;;;;;20.83;14.55;;;;;;;4.66;89.71;102198.69;5078800;28;20064;-53
2022/01/23 12:51:44;;;;;;;24.13;14.90;;;;;;;4.94;89.27;102178.25;5077668;28;20058;-53
2022/01/23 12:54:30;;;;;;;23.27;13.65;;;;;;;5.29;88.83;102173.41;5053544;28;20538;-53
2022/01/23 12:57:07;;;;;;;62.05;26.38;;;;;;;5.51;87.94;102169.56;5078923;28;20055;-54
2022/01/23 12:59:36;;;;;;;56.20;24.50;;;;;;;5.64;86.02;102172.03;5079146;28;20059;-54
2022/01/23 13:02:13;;;;;;;29.90;16.40;;;;;;;5.66;85.23;102167.59;5077510;28;20060;-54
2022/01/23 13:04:44;;;;;;;21.35;13.18;;;;;;;5.74;84.93;102165.72;5077799;28;20069;-54
2022/01/23 13:07:21;;;;;;;23.15;13.45;;;;;;;5.90;84.17;102167.25;5078247;28;20072;-54
2022/01/23 13:09:54;;;;;;;19.50;13.30;;;;;;;5.77;84.52;102173.59;5077290;28;20057;-54
2022/01/23 13:12:48;;;;;;;22.70;14.00;;;;;;;5.16;85.77;102157.78;5077984;28;20060;-54
2022/01/23 13:18:32;;;;;;;29.05;13.93;;;;;;;5.01;88.54;102168.50;5071531;28;20519;-53
2022/01/23 13:32:21;;;;;;;27.42;14.88;;;;;;;4.97;88.62;102145.75;5077171;28;20059;-53
2022/01/23 13:34:52;;;;;;;23.75;15.57;;;;;;;5.08;88.39;102140.34;5076772;28;20056;-53
2022/01/23 13:37:21;;;;;;;26.70;15.15;;;;;;;5.00;88.88;102141.31;5078179;28;20060;-53
2022/01/23 13:39:55;;;;;;;27.45;16.50;;;;;;;4.90;88.57;102144.97;5077205;28;20504;-53
2022/01/23 13:59:30;;;;;;;33.97;17.55;;;;;;;4.43;92.24;102115.69;5077317;28;20061;-53
2022/01/23 14:02:14;;;;;;;24.70;16.02;;;;;;;4.52;91.81;102109.47;5076486;28;20412;-53
2022/01/23 14:04:44;;;;;;;27.13;17.25;;;;;;;4.70;91.21;102111.03;5076267;28;20527;-53
2022/01/23 14:07:17;;;;;;;29.45;17.00;;;;;;;4.58;91.05;102111.16;5076150;28;20053;-53
2022/01/23 14:09:53;;;;;;;28.27;17.05;;;;;;;4.67;91.24;102103.16;5077036;28;20056;-53
2022/01/23 14:12:22;;;;;;;35.58;18.02;;;;;;;4.72;90.92;102109.22;5077764;28;20057;-53
2022/01/23 14:15:13;;;;;;;24.40;15.55;;;;;;;4.71;90.61;102114.50;5076610;28;20527;-53
2022/01/23 14:17:42;;;;;;;24.50;15.93;;;;;;;4.83;89.14;102101.22;5077213;28;20462;-53
2022/01/23 14:20:13;;;;;;;27.20;15.90;;;;;;;4.35;91.30;102104.41;5076734;28;20287;-53